Time;durP1;ratioP1;P1;durP2;ratioP2;P2;SDS_P1;SDS_P2;PMS_P1;PMS_P2;Temp;Humidity;BMP_temperature;BMP_pressure;BME280_temperature;BME280_humidity;BME280_pressure;Samples;Min_cycle;Max_cycle;Signal;HPM_P1;HPM_P2
2023/05/24 00:00:28;;;;;;;31.73;5.95;;;9.20;99.90;;;;;;5111475;28;20026;-45
2023/05/24 00:02:56;;;;;;;17.98;4.93;;;9.20;99.90;;;;;;5110919;28;20396;-44
2023/05/24 00:05:22;;;;;;;24.48;6.22;;;9.10;99.90;;;;;;5111567;28;20019;-45
2023/05/24 00:07:48;;;;;;;27.15;6.53;;;9.10;99.90;;;;;;5111552;28;20103;-44
2023/05/24 00:10:13;;;;;;;19.98;5.53;;;9.10;99.90;;;;;;5111291;28;20107;-44
2023/05/24 00:12:39;;;;;;;18.67;5.05;;;9.20;99.90;;;;;;5110928;28;20116;-42
2023/05/24 00:15:05;;;;;;;23.75;5.38;;;9.10;99.90;;;;;;5111036;28;20027;-44
2023/05/24 00:17:33;;;;;;;23.05;4.78;;;9.10;99.90;;;;;;5109884;28;20019;-45
2023/05/24 00:19:59;;;;;;;28.35;5.97;;;9.10;99.90;;;;;;5111110;28;20015;-43
2023/05/24 00:22:24;;;;;;;23.27;5.70;;;9.00;99.90;;;;;;5100085;28;20024;-45
2023/05/24 00:24:50;;;;;;;20.73;4.80;;;9.00;99.90;;;;;;5095797;28;20062;-43
2023/05/24 00:27:16;;;;;;;30.38;5.55;;;8.90;99.90;;;;;;5109672;28;20047;-43
2023/05/24 00:29:41;;;;;;;17.10;4.70;;;8.90;99.90;;;;;;5111210;28;20020;-44
2023/05/24 00:32:07;;;;;;;24.00;6.25;;;8.90;99.90;;;;;;5110965;28;20031;-43
2023/05/24 00:34:32;;;;;;;29.15;5.82;;;8.90;99.90;;;;;;5110680;28;20048;-45
2023/05/24 00:36:59;;;;;;;30.35;6.97;;;8.80;99.90;;;;;;5111686;28;20016;-42
2023/05/24 00:39:25;;;;;;;28.88;5.20;;;8.80;99.90;;;;;;5111165;27;20023;-46
2023/05/24 00:41:50;;;;;;;22.77;6.47;;;8.70;99.90;;;;;;5111480;28;20016;-44
2023/05/24 00:44:16;;;;;;;28.52;6.15;;;8.70;99.90;;;;;;5111082;28;20479;-43
2023/05/24 00:46:42;;;;;;;20.50;5.55;;;8.60;99.90;;;;;;5110636;28;20035;-42
2023/05/24 00:49:08;;;;;;;27.45;5.93;;;8.60;99.90;;;;;;5110836;28;20027;-45
2023/05/24 00:51:35;;;;;;;23.17;6.32;;;8.60;99.90;;;;;;5106623;28;20016;-45
2023/05/24 00:54:01;;;;;;;29.15;5.82;;;8.60;99.90;;;;;;5090233;28;20013;-45
2023/05/24 00:56:27;;;;;;;33.97;6.20;;;8.60;99.90;;;;;;5099843;28;20016;-46
2023/05/24 00:58:55;;;;;;;36.50;5.53;;;8.50;99.90;;;;;;5110752;28;20023;-43
2023/05/24 01:01:24;;;;;;;24.05;5.18;;;8.50;99.90;;;;;;5109121;28;20461;-42
2023/05/24 01:03:52;;;;;;;35.40;5.70;;;8.50;99.90;;;;;;5109867;28;20027;-46
2023/05/24 01:06:18;;;;;;;34.22;6.53;;;8.50;99.90;;;;;;5110289;27;20076;-44
2023/05/24 01:09:12;;;;;;;25.05;5.78;;;8.50;99.90;;;;;;5110373;28;20024;-45
2023/05/24 01:12:04;;;;;;;14.25;5.50;;;8.50;99.90;;;;;;5103765;28;20564;-43
2023/05/24 01:15:00;;;;;;;24.08;6.32;;;8.50;99.90;;;;;;5109151;28;20034;-45
2023/05/24 01:17:31;;;;;;;25.70;6.47;;;8.50;99.90;;;;;;5110790;28;20028;-45
2023/05/24 01:20:00;;;;;;;25.80;7.03;;;8.50;99.90;;;;;;5108891;28;20098;-45
2023/05/24 01:22:38;;;;;;;27.40;5.88;;;8.40;99.90;;;;;;5098736;28;20028;-42
2023/05/24 01:25:42;;;;;;;34.63;7.00;;;8.40;99.90;;;;;;5089674;28;20020;-44
2023/05/24 01:28:10;;;;;;;24.83;5.57;;;8.40;99.90;;;;;;5105939;28;20456;-44
2023/05/24 01:30:36;;;;;;;37.20;7.40;;;8.40;99.90;;;;;;5108410;28;20019;-45
2023/05/24 01:33:02;;;;;;;21.52;5.72;;;8.40;99.90;;;;;;5108134;28;20024;-44
2023/05/24 01:35:28;;;;;;;17.00;5.82;;;8.30;99.90;;;;;;5109594;28;20073;-44
2023/05/24 01:37:53;;;;;;;32.58;6.00;;;8.30;99.90;;;;;;5109843;28;20069;-45
2023/05/24 01:40:19;;;;;;;27.70;6.22;;;8.30;99.90;;;;;;5109514;28;20023;-45
2023/05/24 01:43:03;;;;;;;29.08;7.13;;;8.20;99.90;;;;;;5109394;28;20019;-45
2023/05/24 01:45:38;;;;;;;17.58;4.97;;;8.20;99.90;;;;;;5109784;28;20019;-44
2023/05/24 01:48:23;;;;;;;30.45;5.75;;;8.30;99.90;;;;;;5107750;28;20027;-42
2023/05/24 01:50:56;;;;;;;35.58;6.90;;;8.30;99.90;;;;;;5095730;28;20039;-44
2023/05/24 01:53:25;;;;;;;23.65;6.65;;;8.30;99.90;;;;;;5088863;28;20107;-44
2023/05/24 01:55:54;;;;;;;28.73;6.95;;;8.30;99.90;;;;;;5102950;28;20433;-44
2023/05/24 01:58:21;;;;;;;25.88;6.97;;;8.20;99.90;;;;;;5109207;28;20213;-42
2023/05/24 02:00:48;;;;;;;29.05;6.57;;;8.20;99.90;;;;;;5109507;28;20219;-42
2023/05/24 02:03:17;;;;;;;31.48;6.97;;;8.10;99.90;;;;;;5108440;28;20034;-45
2023/05/24 02:05:43;;;;;;;37.35;7.75;;;8.10;99.90;;;;;;5109380;28;20055;-42
2023/05/24 02:08:10;;;;;;;35.58;6.45;;;8.00;99.90;;;;;;5108860;28;20016;-45
2023/05/24 02:10:38;;;;;;;27.33;6.95;;;8.00;99.90;;;;;;5108984;28;20071;-43
2023/05/24 02:13:04;;;;;;;27.55;7.50;;;7.90;99.90;;;;;;5108654;28;20008;-43
2023/05/24 02:15:29;;;;;;;34.70;7.25;;;7.90;99.90;;;;;;5109199;28;20040;-42
2023/05/24 02:17:55;;;;;;;30.55;7.22;;;7.90;99.90;;;;;;5109147;28;20096;-44
2023/05/24 02:20:24;;;;;;;36.30;7.50;;;7.90;99.90;;;;;;5109043;28;20157;-43
2023/05/24 02:22:50;;;;;;;28.42;7.10;;;7.90;99.90;;;;;;5092507;28;20080;-43
2023/05/24 02:25:15;;;;;;;33.10;8.23;;;7.80;99.90;;;;;;5097687;28;20485;-43
2023/05/24 02:27:45;;;;;;;31.95;7.75;;;7.90;99.90;;;;;;5108898;28;20019;-43
2023/05/24 02:30:12;;;;;;;36.15;7.30;;;7.90;99.90;;;;;;5109061;28;20012;-44
2023/05/24 02:32:38;;;;;;;25.55;7.30;;;7.90;99.90;;;;;;5108719;28;20028;-42
2023/05/24 02:35:04;;;;;;;31.70;7.53;;;7.90;99.90;;;;;;5108830;28;20026;-42
2023/05/24 02:37:29;;;;;;;28.92;7.30;;;8.00;99.90;;;;;;5108789;28;20062;-44
2023/05/24 02:39:55;;;;;;;32.63;8.98;;;7.90;99.90;;;;;;5109291;28;20041;-44
2023/05/24 02:42:20;;;;;;;29.85;8.27;;;7.90;99.90;;;;;;5108418;28;20020;-42
2023/05/24 02:44:47;;;;;;;30.52;6.88;;;7.90;99.90;;;;;;5107172;28;20020;-44
2023/05/24 02:47:17;;;;;;;36.05;7.07;;;7.90;99.90;;;;;;5108883;28;20162;-43
2023/05/24 02:49:42;;;;;;;31.08;8.25;;;7.90;99.90;;;;;;5108569;28;20022;-42
2023/05/24 02:52:08;;;;;;;34.53;8.50;;;7.90;99.90;;;;;;5099867;28;20016;-43
2023/05/24 02:54:33;;;;;;;35.20;7.05;;;7.90;99.90;;;;;;5090834;28;20031;-44
2023/05/24 02:57:00;;;;;;;37.40;8.85;;;7.90;99.90;;;;;;5108954;28;20445;-43
2023/05/24 02:59:25;;;;;;;29.42;6.95;;;7.90;99.90;;;;;;5108603;28;20043;-44
2023/05/24 03:01:51;;;;;;;46.92;9.57;;;7.90;99.90;;;;;;5108414;28;20043;-44
2023/05/24 03:04:17;;;;;;;46.05;10.65;;;7.90;99.90;;;;;;5108041;28;20032;-46
2023/05/24 03:06:42;;;;;;;27.55;7.50;;;7.80;99.90;;;;;;5108583;28;20024;-42
2023/05/24 03:09:08;;;;;;;32.20;7.70;;;7.90;99.90;;;;;;5108783;28;20020;-43
2023/05/24 03:11:33;;;;;;;39.67;8.43;;;7.90;99.90;;;;;;5108219;28;20020;-44
2023/05/24 03:13:59;;;;;;;34.78;8.20;;;7.90;99.90;;;;;;5107768;28;20076;-43
2023/05/24 03:16:24;;;;;;;43.40;8.77;;;7.90;99.90;;;;;;5108587;28;20072;-45
2023/05/24 03:18:50;;;;;;;38.20;8.98;;;7.90;99.90;;;;;;5109521;28;20031;-44
2023/05/24 03:21:19;;;;;;;33.90;9.02;;;7.90;99.90;;;;;;5110562;28;20020;-44
2023/05/24 03:23:44;;;;;;;31.40;7.55;;;7.90;99.90;;;;;;5073386;28;20095;-43
2023/05/24 03:26:11;;;;;;;37.05;9.30;;;7.90;99.90;;;;;;5107519;28;20543;-46
2023/05/24 03:28:37;;;;;;;35.67;9.10;;;7.90;99.90;;;;;;5112492;28;20396;-43
2023/05/24 03:31:03;;;;;;;37.38;8.82;;;7.90;99.90;;;;;;5112613;28;20020;-42
2023/05/24 03:33:30;;;;;;;40.50;8.13;;;7.90;99.90;;;;;;5111386;28;20092;-43
2023/05/24 03:35:57;;;;;;;33.75;8.65;;;7.90;99.90;;;;;;5112168;27;20016;-44
2023/05/24 03:38:22;;;;;;;39.38;8.23;;;7.90;99.90;;;;;;5111795;27;20301;-43
2023/05/24 03:40:48;;;;;;;53.13;11.63;;;7.90;99.90;;;;;;5092257;28;20390;-43
2023/05/24 03:43:15;;;;;;;37.92;8.77;;;8.00;99.90;;;;;;5108412;28;20384;-43
2023/05/24 03:45:47;;;;;;;28.65;8.48;;;7.90;99.90;;;;;;5111960;27;20023;-42
2023/05/24 03:48:13;;;;;;;35.60;8.07;;;8.10;99.90;;;;;;5105500;27;20107;-42
2023/05/24 03:50:39;;;;;;;38.58;8.40;;;8.10;99.90;;;;;;5083319;28;20090;-44
2023/05/24 03:53:05;;;;;;;25.58;7.75;;;8.10;99.90;;;;;;5106832;28;20015;-43
2023/05/24 03:55:30;;;;;;;27.23;7.72;;;8.10;99.90;;;;;;5110608;28;20123;-43
2023/05/24 03:57:56;;;;;;;30.30;8.80;;;8.10;99.90;;;;;;5111909;28;20372;-43
2023/05/24 04:00:21;;;;;;;41.00;8.90;;;8.20;99.90;;;;;;5111073;28;20019;-45
2023/05/24 04:02:47;;;;;;;41.10;9.73;;;8.20;99.90;;;;;;5111470;28;20020;-47
2023/05/24 04:05:13;;;;;;;28.98;8.15;;;8.20;99.90;;;;;;5111389;28;20301;-42
2023/05/24 04:07:40;;;;;;;33.00;7.82;;;8.20;99.90;;;;;;5110584;28;20613;-44
2023/05/24 04:10:07;;;;;;;31.85;8.20;;;8.30;99.90;;;;;;5111553;28;20028;-43
2023/05/24 04:12:33;;;;;;;34.42;8.18;;;8.30;99.90;;;;;;5111290;28;20031;-42
2023/05/24 04:15:00;;;;;;;31.23;7.32;;;8.40;99.90;;;;;;5111138;28;20019;-43
2023/05/24 04:17:33;;;;;;;44.63;9.80;;;8.50;99.90;;;;;;5111496;28;20015;-44
2023/05/24 04:19:59;;;;;;;40.67;8.80;;;8.50;99.90;;;;;;5094689;28;20051;-42
2023/05/24 04:22:25;;;;;;;32.35;8.88;;;8.60;99.90;;;;;;5099318;28;20507;-42
2023/05/24 04:24:53;;;;;;;36.17;10.38;;;8.60;99.90;;;;;;5111245;28;20031;-42
2023/05/24 04:27:19;;;;;;;39.88;10.10;;;8.70;99.90;;;;;;5111412;28;20026;-43
2023/05/24 04:29:48;;;;;;;39.33;8.38;;;8.80;99.90;;;;;;5111210;28;20091;-43
2023/05/24 04:32:14;;;;;;;31.38;8.82;;;8.80;99.90;;;;;;5111368;28;20323;-45
2023/05/24 04:34:41;;;;;;;45.08;9.52;;;8.80;99.90;;;;;;5108809;28;20122;-42
2023/05/24 04:37:07;;;;;;;36.05;8.82;;;8.90;99.90;;;;;;5111052;28;20043;-45
2023/05/24 04:39:32;;;;;;;43.03;9.32;;;8.90;99.90;;;;;;5111063;28;20062;-46
2023/05/24 04:41:59;;;;;;;30.23;7.47;;;8.90;99.90;;;;;;5110536;28;20008;-43
2023/05/24 04:44:25;;;;;;;38.67;8.93;;;8.90;99.90;;;;;;5110758;28;20024;-42
2023/05/24 04:46:50;;;;;;;35.67;9.55;;;9.00;99.90;;;;;;5110695;28;20050;-43
2023/05/24 04:49:16;;;;;;;38.65;8.23;;;9.00;99.90;;;;;;5099966;28;20024;-42
2023/05/24 04:51:42;;;;;;;39.03;8.85;;;9.00;99.90;;;;;;5089114;28;20501;-43
2023/05/24 04:54:07;;;;;;;38.97;8.68;;;9.10;99.90;;;;;;5104060;28;20019;-43
2023/05/24 04:56:37;;;;;;;42.72;9.32;;;9.20;99.90;;;;;;5108705;28;20149;-43
2023/05/24 04:59:04;;;;;;;28.73;8.67;;;9.20;99.90;;;;;;5110442;28;20011;-45
2023/05/24 05:01:30;;;;;;;37.20;11.13;;;9.20;99.90;;;;;;5110364;28;20489;-43
2023/05/24 05:03:56;;;;;;;43.65;10.57;;;9.40;99.90;;;;;;5109884;28;20030;-43
2023/05/24 05:06:21;;;;;;;41.20;9.30;;;9.40;99.90;;;;;;5110222;28;20024;-45
2023/05/24 05:08:46;;;;;;;34.38;9.27;;;9.40;99.90;;;;;;5109163;28;20027;-45
2023/05/24 05:11:13;;;;;;;37.85;8.88;;;9.30;99.90;;;;;;5110486;28;20496;-45
2023/05/24 05:13:39;;;;;;;53.55;10.85;;;9.40;99.90;;;;;;5109298;28;20027;-45
2023/05/24 05:16:04;;;;;;;40.88;8.90;;;9.40;99.90;;;;;;5110042;28;20018;-42
2023/05/24 05:18:30;;;;;;;25.10;7.60;;;9.30;99.90;;;;;;5109949;28;20023;-42
2023/05/24 05:20:57;;;;;;;30.75;8.95;;;9.30;99.90;;;;;;5109817;28;20011;-45
2023/05/24 05:23:22;;;;;;;31.98;8.30;;;9.30;99.90;;;;;;5109734;28;20012;-46
2023/05/24 05:25:48;;;;;;;35.85;8.82;;;9.30;99.90;;;;;;5110162;28;20092;-46
2023/05/24 05:28:13;;;;;;;26.00;7.70;;;9.20;99.90;;;;;;5109922;28;20097;-46
2023/05/24 05:30:39;;;;;;;35.42;8.68;;;9.30;99.90;;;;;;5108950;28;20264;-44
2023/05/24 05:33:04;;;;;;;29.40;8.95;;;9.30;99.90;;;;;;5103623;28;20504;-46
2023/05/24 05:35:31;;;;;;;38.60;9.32;;;9.30;99.90;;;;;;5109913;28;20032;-45
2023/05/24 05:37:57;;;;;;;29.50;8.00;;;9.30;99.90;;;;;;5101671;28;20020;-43
2023/05/24 05:40:22;;;;;;;32.38;9.52;;;9.30;99.90;;;;;;5089015;28;20108;-43
2023/05/24 05:42:48;;;;;;;47.08;10.45;;;9.40;99.90;;;;;;5085577;28;20051;-43
2023/05/24 05:45:15;;;;;;;36.58;8.73;;;9.50;99.90;;;;;;5089973;28;20529;-45
2023/05/24 05:47:41;;;;;;;38.58;8.77;;;9.50;99.90;;;;;;5089392;28;20076;-43
2023/05/24 05:50:07;;;;;;;38.33;10.63;;;9.50;99.90;;;;;;5089637;28;20058;-42
2023/05/24 05:52:33;;;;;;;44.75;9.10;;;9.50;99.90;;;;;;5099052;28;20059;-46
2023/05/24 05:54:59;;;;;;;46.03;9.45;;;9.60;99.90;;;;;;5107460;28;20552;-42
2023/05/24 05:57:25;;;;;;;37.70;9.52;;;9.60;99.90;;;;;;5101064;28;20016;-44
2023/05/24 05:59:50;;;;;;;37.30;8.88;;;9.60;99.90;;;;;;5103503;28;20509;-43
2023/05/24 06:02:17;;;;;;;33.45;8.85;;;9.60;99.90;;;;;;5109030;28;20020;-42
2023/05/24 06:04:44;;;;;;;29.83;8.15;;;9.60;99.90;;;;;;5108947;28;20102;-42
2023/05/24 06:07:10;;;;;;;41.08;11.43;;;9.70;99.90;;;;;;5095672;28;20064;-42
2023/05/24 06:09:35;;;;;;;30.45;8.38;;;9.70;99.90;;;;;;5100203;28;20139;-43
2023/05/24 06:12:01;;;;;;;41.03;8.82;;;9.80;99.90;;;;;;5103981;28;20020;-42
2023/05/24 06:14:26;;;;;;;33.47;8.32;;;9.70;99.90;;;;;;5108570;28;20019;-43
2023/05/24 06:16:53;;;;;;;37.70;9.43;;;9.70;99.90;;;;;;5107614;28;20030;-44
2023/05/24 06:19:19;;;;;;;46.40;10.15;;;9.70;99.90;;;;;;5103050;28;20024;-43
2023/05/24 06:21:46;;;;;;;35.38;8.43;;;9.70;99.90;;;;;;5098453;28;20044;-45
2023/05/24 06:24:21;;;;;;;27.83;8.30;;;9.70;99.90;;;;;;5107121;28;20023;-42
2023/05/24 06:26:48;;;;;;;28.77;8.23;;;9.70;99.90;;;;;;5108899;28;20019;-44
2023/05/24 06:29:14;;;;;;;31.58;8.40;;;9.70;99.90;;;;;;5100822;28;20563;-43
2023/05/24 06:31:40;;;;;;;42.17;9.10;;;9.70;99.90;;;;;;5102970;28;20024;-46
2023/05/24 06:34:05;;;;;;;29.73;8.57;;;9.70;99.90;;;;;;5104021;28;20023;-45
2023/05/24 06:36:34;;;;;;;36.63;9.23;;;9.70;99.90;;;;;;5082580;28;20056;-45
2023/05/24 06:39:00;;;;;;;45.47;10.85;;;9.70;99.90;;;;;;5086190;28;20030;-44
2023/05/24 06:41:26;;;;;;;31.25;8.52;;;9.70;99.90;;;;;;5089732;28;20024;-42
2023/05/24 06:43:52;;;;;;;36.00;8.90;;;9.70;99.90;;;;;;5090497;28;20035;-43
2023/05/24 06:46:17;;;;;;;29.27;8.35;;;9.80;99.90;;;;;;5089529;28;20019;-44
2023/05/24 06:48:43;;;;;;;37.55;7.97;;;9.80;99.90;;;;;;5106680;28;20084;-42
2023/05/24 06:51:08;;;;;;;37.45;9.18;;;9.90;99.90;;;;;;5107315;28;20489;-44
2023/05/24 06:53:34;;;;;;;34.67;8.68;;;10.00;99.90;;;;;;5101829;28;20451;-43
2023/05/24 06:55:59;;;;;;;28.25;8.23;;;10.10;99.90;;;;;;5098496;28;20020;-44
2023/05/24 06:58:25;;;;;;;33.33;8.95;;;10.10;99.90;;;;;;5087756;28;20038;-43
2023/05/24 07:00:51;;;;;;;31.35;7.43;;;10.10;99.90;;;;;;5107047;28;20023;-43
2023/05/24 07:03:17;;;;;;;32.67;8.68;;;10.10;99.90;;;;;;5109564;28;20556;-42
2023/05/24 07:05:43;;;;;;;32.58;9.10;;;10.20;99.90;;;;;;5112876;28;20019;-43
2023/05/24 07:08:08;;;;;;;30.30;8.27;;;10.20;99.90;;;;;;5095197;28;20044;-43
2023/05/24 07:10:34;;;;;;;45.42;9.30;;;10.20;99.90;;;;;;5093160;28;20311;-42
2023/05/24 07:13:00;;;;;;;47.30;9.25;;;10.20;99.90;;;;;;5092190;28;20598;-42
2023/05/24 07:15:25;;;;;;;34.08;8.35;;;10.30;99.90;;;;;;5092617;28;20070;-44
2023/05/24 07:17:51;;;;;;;45.95;9.40;;;10.40;99.90;;;;;;5092250;28;20020;-43
2023/05/24 07:20:17;;;;;;;33.83;8.13;;;10.40;99.90;;;;;;5083295;28;20382;-43
2023/05/24 07:22:43;;;;;;;34.55;7.85;;;10.50;99.90;;;;;;5105750;28;20088;-45
2023/05/24 07:25:08;;;;;;;31.83;8.60;;;10.60;99.90;;;;;;5111696;28;20016;-42
2023/05/24 07:27:34;;;;;;;34.53;8.45;;;10.60;99.90;;;;;;5101534;28;20088;-43
2023/05/24 07:30:00;;;;;;;34.03;9.07;;;10.60;99.90;;;;;;5104555;28;20122;-45
2023/05/24 07:32:26;;;;;;;35.65;8.30;;;10.70;99.90;;;;;;5109296;28;20177;-42
2023/05/24 07:34:52;;;;;;;32.70;9.65;;;10.70;99.90;;;;;;5111214;28;20026;-42
2023/05/24 07:37:17;;;;;;;21.90;6.70;;;10.70;99.90;;;;;;5109066;28;20095;-44
2023/05/24 07:39:43;;;;;;;26.60;7.85;;;10.80;99.90;;;;;;5107837;28;20441;-42
2023/05/24 07:42:09;;;;;;;35.38;8.68;;;10.80;99.90;;;;;;5097780;28;20012;-44
2023/05/24 07:44:34;;;;;;;29.50;8.68;;;10.90;99.90;;;;;;5111347;28;20034;-42
2023/05/24 07:47:01;;;;;;;42.42;9.18;;;11.00;99.90;;;;;;5111797;28;20145;-43
2023/05/24 07:49:27;;;;;;;39.97;9.45;;;11.10;99.90;;;;;;5098487;28;20316;-43
2023/05/24 07:51:55;;;;;;;34.55;8.27;;;11.10;99.90;;;;;;5109688;28;20030;-43
2023/05/24 07:54:21;;;;;;;36.72;9.50;;;11.10;99.90;;;;;;5100678;28;20026;-42
2023/05/24 07:56:47;;;;;;;25.17;7.25;;;11.20;99.90;;;;;;5102249;28;20015;-44
2023/05/24 07:59:12;;;;;;;33.75;8.43;;;11.30;99.90;;;;;;5109872;28;20015;-43
2023/05/24 08:01:38;;;;;;;35.20;8.68;;;11.40;99.90;;;;;;5097278;28;20460;-45
2023/05/24 08:04:04;;;;;;;28.30;8.98;;;11.50;99.90;;;;;;5087736;28;20038;-42
2023/05/24 08:06:31;;;;;;;30.15;8.23;;;11.50;99.90;;;;;;5073934;28;20036;-42
2023/05/24 08:08:57;;;;;;;26.20;7.25;;;11.50;99.90;;;;;;5084392;28;20073;-45
2023/05/24 08:11:22;;;;;;;26.60;8.10;;;11.50;99.90;;;;;;5097720;28;20059;-44
2023/05/24 08:13:48;;;;;;;32.92;8.95;;;11.70;99.90;;;;;;5102163;28;20035;-45
2023/05/24 08:16:14;;;;;;;21.52;8.02;;;11.80;99.90;;;;;;5094153;28;20021;-46
2023/05/24 08:18:39;;;;;;;22.42;7.22;;;11.80;99.90;;;;;;5098346;28;20404;-43
2023/05/24 08:21:05;;;;;;;29.50;8.02;;;11.90;99.90;;;;;;5096046;28;20020;-42
2023/05/24 08:23:30;;;;;;;26.95;7.40;;;11.90;99.90;;;;;;5109797;28;20028;-44
2023/05/24 08:25:57;;;;;;;30.10;8.63;;;12.00;99.90;;;;;;5103590;28;20026;-42
2023/05/24 08:28:22;;;;;;;21.60;7.10;;;12.00;99.90;;;;;;5111298;28;20516;-43
2023/05/24 08:30:48;;;;;;;26.42;6.63;;;12.20;99.90;;;;;;5107006;28;20102;-43
2023/05/24 08:33:13;;;;;;;19.60;6.50;;;12.30;99.90;;;;;;5094178;28;20065;-44
2023/05/24 08:35:40;;;;;;;26.90;7.75;;;12.30;99.90;;;;;;5100458;28;20082;-43
2023/05/24 08:38:06;;;;;;;18.25;7.20;;;12.40;99.90;;;;;;5102638;28;20034;-45
2023/05/24 08:40:31;;;;;;;20.15;5.88;;;12.40;99.90;;;;;;5110930;28;20203;-45
2023/05/24 08:43:00;;;;;;;30.08;7.78;;;12.50;99.90;;;;;;5096486;28;20429;-45
2023/05/24 08:45:29;;;;;;;23.00;7.22;;;12.50;99.90;;;;;;5098585;28;20108;-45
2023/05/24 08:47:55;;;;;;;19.17;6.68;;;12.50;99.90;;;;;;5110461;28;20042;-44
2023/05/24 08:50:21;;;;;;;25.88;6.82;;;12.50;99.90;;;;;;5100959;28;20020;-42
2023/05/24 08:52:47;;;;;;;22.63;6.38;;;12.50;99.90;;;;;;5095649;28;20058;-43
2023/05/24 08:55:14;;;;;;;23.17;7.57;;;12.70;99.90;;;;;;5106535;28;20024;-43
2023/05/24 08:57:40;;;;;;;18.33;7.03;;;12.70;99.90;;;;;;5087643;28;20113;-43
2023/05/24 09:00:10;;;;;;;19.45;6.97;;;12.80;99.90;;;;;;5086879;28;20020;-43
2023/05/24 09:05:59;;;;;;;23.08;7.38;;;12.90;99.90;;;;;;5073195;28;20067;-45
2023/05/24 09:08:27;;;;;;;22.27;7.70;;;12.90;99.90;;;;;;5081593;28;20051;-42
2023/05/24 09:10:53;;;;;;;21.92;6.63;;;12.80;99.90;;;;;;5082248;28;20054;-42
2023/05/24 09:13:19;;;;;;;16.35;5.95;;;12.80;99.90;;;;;;5068584;28;20126;-43
2023/05/24 09:15:45;;;;;;;16.17;6.38;;;12.80;99.90;;;;;;5066152;28;20028;-46
2023/05/24 09:18:10;;;;;;;14.30;5.57;;;12.80;99.90;;;;;;5068337;28;20017;-42
2023/05/24 09:20:36;;;;;;;25.75;6.18;;;13.00;99.90;;;;;;5069029;28;20016;-45
2023/05/24 09:23:03;;;;;;;17.85;5.32;;;13.20;99.90;;;;;;5068839;28;20028;-45
2023/05/24 09:25:29;;;;;;;14.32;4.85;;;13.60;99.90;;;;;;5070236;28;20035;-44
2023/05/24 09:27:55;;;;;;;16.13;5.85;;;13.90;99.90;;;;;;5071438;28;20428;-43
2023/05/24 09:30:21;;;;;;;16.20;6.38;;;14.00;99.90;;;;;;5068767;28;20032;-43
2023/05/24 09:33:00;;;;;;;18.95;5.75;;;14.20;99.90;;;;;;5067793;28;20016;-43
2023/05/24 09:35:27;;;;;;;13.63;5.30;;;14.30;99.90;;;;;;5066287;28;20383;-43
2023/05/24 09:37:59;;;;;;;15.85;5.10;;;14.50;99.90;;;;;;5066527;28;20104;-43
2023/05/24 09:40:26;;;;;;;17.77;5.57;;;14.90;99.90;;;;;;5068738;28;20095;-43
2023/05/24 09:43:08;;;;;;;16.38;5.53;;;15.10;99.90;;;;;;5068371;28;20013;-44
2023/05/24 09:45:43;;;;;;;11.10;5.03;;;15.30;99.90;;;;;;5066525;28;20037;-42
2023/05/24 09:48:12;;;;;;;9.80;4.35;;;15.10;99.90;;;;;;5069772;28;20295;-42
2023/05/24 09:50:38;;;;;;;27.75;6.25;;;15.10;99.90;;;;;;5075877;28;20055;-43
2023/05/24 09:53:04;;;;;;;13.38;4.70;;;15.40;99.90;;;;;;5076186;28;20087;-44
2023/05/24 09:55:40;;;;;;;14.82;4.55;;;15.60;99.90;;;;;;5074119;28;20082;-52
2023/05/24 09:58:07;;;;;;;14.45;4.47;;;16.40;99.90;;;;;;5074209;28;20024;-50
2023/05/24 10:00:40;;;;;;;10.93;5.00;;;16.80;99.90;;;;;;5073502;28;20054;-49
2023/05/24 10:03:09;;;;;;;17.30;4.47;;;17.10;99.90;;;;;;5076531;28;20103;-52
2023/05/24 10:05:36;;;;;;;17.63;4.65;;;16.80;99.90;;;;;;5076995;28;20108;-51
2023/05/24 10:08:05;;;;;;;9.77;4.07;;;16.70;99.90;;;;;;5072165;28;20024;-49
2023/05/24 10:10:32;;;;;;;11.88;4.40;;;16.70;99.90;;;;;;5070656;28;20024;-49
2023/05/24 10:12:59;;;;;;;14.55;4.05;;;16.60;99.90;;;;;;5072115;28;20024;-49
2023/05/24 10:15:26;;;;;;;12.30;3.70;;;17.30;99.90;;;;;;5070798;28;20296;-51
2023/05/24 10:17:53;;;;;;;15.27;4.32;;;18.40;99.90;;;;;;5075603;28;20058;-49
2023/05/24 10:20:18;;;;;;;14.98;4.53;;;18.40;96.80;;;;;;5075373;28;20394;-50
2023/05/24 10:22:46;;;;;;;13.60;4.32;;;17.60;97.40;;;;;;5072067;28;20017;-49
2023/05/24 10:25:26;;;;;;;15.50;4.90;;;16.70;99.50;;;;;;5072118;28;20021;-49
2023/05/24 10:27:56;;;;;;;13.88;4.93;;;16.20;99.90;;;;;;5074858;28;20453;-50
2023/05/24 10:30:32;;;;;;;10.43;4.28;;;15.80;99.90;;;;;;5074070;28;20042;-49
2023/05/24 10:33:00;;;;;;;16.88;4.90;;;15.40;99.90;;;;;;5075690;28;20082;-49
2023/05/24 10:35:26;;;;;;;11.45;4.55;;;15.20;99.90;;;;;;5075799;28;20123;-50
2023/05/24 10:37:53;;;;;;;12.93;4.63;;;15.20;99.90;;;;;;5074142;28;20665;-49
2023/05/24 10:40:24;;;;;;;18.15;5.18;;;15.20;99.90;;;;;;5077602;28;20025;-50
2023/05/24 10:42:50;;;;;;;14.23;4.32;;;15.20;99.90;;;;;;5056150;28;20125;-50
2023/05/24 10:45:40;;;;;;;15.57;4.60;;;15.20;99.90;;;;;;5061017;28;20502;-49
2023/05/24 10:48:11;;;;;;;16.77;4.60;;;15.20;99.90;;;;;;5063697;28;20040;-49
2023/05/24 10:50:37;;;;;;;13.68;4.72;;;15.30;99.90;;;;;;5073250;28;20021;-50
2023/05/24 10:53:15;;;;;;;14.18;4.45;;;15.00;99.90;;;;;;5073726;28;20027;-49
2023/05/24 10:55:52;;;;;;;17.45;4.80;;;15.00;99.90;;;;;;5074762;28;20546;-50
2023/05/24 10:58:19;;;;;;;10.40;4.28;;;14.80;99.90;;;;;;5070239;28;20497;-49
2023/05/24 11:00:45;;;;;;;14.15;4.80;;;14.60;99.90;;;;;;5067775;28;20040;-51
2023/05/24 11:03:12;;;;;;;12.40;4.65;;;14.50;99.90;;;;;;5074013;28;20029;-49
2023/05/24 11:05:46;;;;;;;10.48;3.85;;;14.30;99.90;;;;;;5077059;28;20043;-49
2023/05/24 11:08:12;;;;;;;10.38;4.53;;;14.30;99.90;;;;;;5075135;28;20020;-50
2023/05/24 11:10:38;;;;;;;13.20;4.32;;;14.40;99.90;;;;;;5077209;28;20383;-51
2023/05/24 11:13:07;;;;;;;17.85;4.65;;;14.40;99.90;;;;;;5057406;28;20470;-50
2023/05/24 11:15:33;;;;;;;8.68;3.65;;;14.50;99.90;;;;;;5073028;28;20056;-51
2023/05/24 11:18:08;;;;;;;7.57;3.70;;;14.70;99.90;;;;;;5056773;28;20012;-51
2023/05/24 11:20:35;;;;;;;18.30;4.78;;;15.10;99.90;;;;;;5075210;28;20600;-49
2023/05/24 11:23:13;;;;;;;7.82;3.72;;;15.40;99.90;;;;;;5074592;28;20393;-50
2023/05/24 11:25:39;;;;;;;8.05;3.70;;;15.90;99.90;;;;;;5074769;28;20028;-49
2023/05/24 11:28:11;;;;;;;11.02;4.40;;;16.70;99.90;;;;;;5073375;28;20020;-50
2023/05/24 11:30:41;;;;;;;13.68;3.95;;;16.80;99.90;;;;;;5075664;28;20498;-50
2023/05/24 11:33:23;;;;;;;10.23;4.05;;;16.80;99.90;;;;;;5074173;28;20383;-50
2023/05/24 11:35:54;;;;;;;11.85;3.95;;;16.60;99.90;;;;;;5069726;28;20027;-50
2023/05/24 11:38:20;;;;;;;13.73;4.78;;;16.40;99.90;;;;;;5074820;28;20017;-49
2023/05/24 11:40:48;;;;;;;11.60;4.18;;;16.20;99.90;;;;;;5073773;28;20028;-50
2023/05/24 11:43:18;;;;;;;7.32;3.72;;;16.10;99.90;;;;;;5077891;28;20485;-49
2023/05/24 11:45:47;;;;;;;14.45;4.15;;;16.10;99.90;;;;;;5074484;28;20024;-49
2023/05/24 11:48:13;;;;;;;14.95;4.65;;;16.00;99.90;;;;;;5077371;28;20047;-50
2023/05/24 11:50:40;;;;;;;12.52;3.90;;;16.00;99.90;;;;;;5076554;28;20036;-50
2023/05/24 11:53:08;;;;;;;15.77;4.72;;;16.10;99.90;;;;;;5074711;28;20032;-50
2023/05/24 11:55:34;;;;;;;10.93;4.20;;;16.10;99.90;;;;;;5077239;28;20027;-52
2023/05/24 11:58:04;;;;;;;15.25;4.78;;;16.40;99.90;;;;;;5056959;28;20020;-50
2023/05/24 12:00:30;;;;;;;11.80;4.45;;;16.40;99.90;;;;;;5068070;28;20064;-51
2023/05/24 12:03:00;;;;;;;17.05;4.88;;;16.70;99.90;;;;;;5070695;28;20055;-52
2023/05/24 12:05:30;;;;;;;14.00;4.10;;;16.80;99.90;;;;;;5072885;28;20039;-51
2023/05/24 12:08:16;;;;;;;11.13;4.03;;;16.80;99.90;;;;;;5070555;28;20492;-50
2023/05/24 12:10:42;;;;;;;10.10;3.88;;;16.90;99.90;;;;;;5069677;28;20375;-51
2023/05/24 12:13:22;;;;;;;11.45;3.70;;;16.80;99.90;;;;;;5027113;28;20505;-50
2023/05/24 12:15:51;;;;;;;7.90;4.22;;;16.80;99.90;;;;;;5069834;28;20032;-51
2023/05/24 12:18:18;;;;;;;11.18;3.88;;;16.70;99.90;;;;;;5070333;28;20017;-52
2023/05/24 12:20:45;;;;;;;12.90;4.07;;;16.60;99.90;;;;;;5069813;28;20528;-52
2023/05/24 12:23:13;;;;;;;12.27;4.45;;;16.90;99.90;;;;;;5069820;28;20123;-51
2023/05/24 12:25:38;;;;;;;12.48;4.15;;;17.10;99.90;;;;;;5070682;28;20020;-52
2023/05/24 12:28:04;;;;;;;10.13;4.03;;;17.30;99.90;;;;;;5070277;28;20059;-53
2023/05/24 12:30:30;;;;;;;11.75;4.40;;;17.40;99.90;;;;;;5077231;28;20082;-51
2023/05/24 12:32:56;;;;;;;10.55;4.15;;;17.50;99.90;;;;;;5059742;28;20024;-52
2023/05/24 12:35:22;;;;;;;11.65;4.25;;;17.60;99.90;;;;;;5061766;28;20029;-49
2023/05/24 12:37:48;;;;;;;9.27;4.35;;;17.70;99.60;;;;;;5070325;28;20100;-52
2023/05/24 12:40:22;;;;;;;14.85;4.85;;;17.60;99.20;;;;;;5070221;28;20039;-52
2023/05/24 12:42:54;;;;;;;10.13;4.20;;;17.60;99.90;;;;;;5070230;28;20016;-53
2023/05/24 12:45:23;;;;;;;10.85;4.65;;;17.40;99.90;;;;;;5069468;28;20028;-50
2023/05/24 12:47:52;;;;;;;12.40;4.53;;;17.40;99.90;;;;;;5073508;28;20111;-50